sensor_id;sensor_type;location;lat;lon;timestamp;temperature;humidity
3348;DHT22;1687;49.540;8.574;2022-09-09T00:02:08;18.60;66.00
3348;DHT22;1687;49.540;8.574;2022-09-09T00:04:41;18.60;66.30
3348;DHT22;1687;49.540;8.574;2022-09-09T00:09:59;18.70;66.40
3348;DHT22;1687;49.540;8.574;2022-09-09T00:18:38;18.70;66.60
3348;DHT22;1687;49.540;8.574;2022-09-09T00:21:17;18.70;66.70
3348;DHT22;1687;49.540;8.574;2022-09-09T00:23:55;18.80;67.00
3348;DHT22;1687;49.540;8.574;2022-09-09T00:26:38;18.80;67.00
3348;DHT22;1687;49.540;8.574;2022-09-09T00:31:37;18.90;67.10
3348;DHT22;1687;49.540;8.574;2022-09-09T00:34:15;18.90;67.00
3348;DHT22;1687;49.540;8.574;2022-09-09T00:36:44;18.90;67.00
3348;DHT22;1687;49.540;8.574;2022-09-09T00:39:59;18.90;66.90
3348;DHT22;1687;49.540;8.574;2022-09-09T00:42:26;18.90;66.90
3348;DHT22;1687;49.540;8.574;2022-09-09T00:47:52;18.80;67.20
3348;DHT22;1687;49.540;8.574;2022-09-09T00:50:49;18.80;67.50
3348;DHT22;1687;49.540;8.574;2022-09-09T01:05:05;19.00;67.90
3348;DHT22;1687;49.540;8.574;2022-09-09T01:07:36;18.90;67.80
3348;DHT22;1687;49.540;8.574;2022-09-09T01:10:07;18.80;67.60
3348;DHT22;1687;49.540;8.574;2022-09-09T01:12:41;18.80;67.90
3348;DHT22;1687;49.540;8.574;2022-09-09T01:15:17;18.80;67.90
3348;DHT22;1687;49.540;8.574;2022-09-09T01:18:33;18.70;68.00
3348;DHT22;1687;49.540;8.574;2022-09-09T01:24:36;18.60;68.30
3348;DHT22;1687;49.540;8.574;2022-09-09T01:27:06;18.60;68.40
3348;DHT22;1687;49.540;8.574;2022-09-09T01:29:33;18.50;68.50
3348;DHT22;1687;49.540;8.574;2022-09-09T01:32:01;18.40;68.60
3348;DHT22;1687;49.540;8.574;2022-09-09T01:34:47;18.40;68.60
3348;DHT22;1687;49.540;8.574;2022-09-09T01:37:13;18.40;68.80
3348;DHT22;1687;49.540;8.574;2022-09-09T01:39:41;18.30;68.80
3348;DHT22;1687;49.540;8.574;2022-09-09T01:42:11;18.30;69.00
3348;DHT22;1687;49.540;8.574;2022-09-09T01:44:39;18.30;69.10
3348;DHT22;1687;49.540;8.574;2022-09-09T01:47:05;18.30;69.30
3348;DHT22;1687;49.540;8.574;2022-09-09T01:49:32;18.30;69.50
3348;DHT22;1687;49.540;8.574;2022-09-09T01:51:58;18.30;69.40
3348;DHT22;1687;49.540;8.574;2022-09-09T01:54:28;18.20;69.30
3348;DHT22;1687;49.540;8.574;2022-09-09T01:57:06;18.20;69.50
3348;DHT22;1687;49.540;8.574;2022-09-09T02:00:08;18.20;69.70
3348;DHT22;1687;49.540;8.574;2022-09-09T02:02:43;18.20;69.80
3348;DHT22;1687;49.540;8.574;2022-09-09T02:05:38;18.20;69.90
3348;DHT22;1687;49.540;8.574;2022-09-09T02:08:11;18.20;70.30
3348;DHT22;1687;49.540;8.574;2022-09-09T02:10:50;18.20;70.20
3348;DHT22;1687;49.540;8.574;2022-09-09T02:13:21;18.20;70.30
3348;DHT22;1687;49.540;8.574;2022-09-09T02:18:35;18.20;70.40
3348;DHT22;1687;49.540;8.574;2022-09-09T02:21:05;18.20;70.70
3348;DHT22;1687;49.540;8.574;2022-09-09T02:23:32;18.20;70.60
3348;DHT22;1687;49.540;8.574;2022-09-09T02:26:00;18.20;70.70
3348;DHT22;1687;49.540;8.574;2022-09-09T02:28:29;18.10;70.80
3348;DHT22;1687;49.540;8.574;2022-09-09T02:30:57;18.10;70.90
3348;DHT22;1687;49.540;8.574;2022-09-09T02:33:26;18.10;71.10
3348;DHT22;1687;49.540;8.574;2022-09-09T02:35:53;18.10;71.20
3348;DHT22;1687;49.540;8.574;2022-09-09T02:38:24;18.10;71.40
3348;DHT22;1687;49.540;8.574;2022-09-09T02:40:51;18.10;72.40
3348;DHT22;1687;49.540;8.574;2022-09-09T02:43:17;18.00;71.40
3348;DHT22;1687;49.540;8.574;2022-09-09T02:49:10;18.00;71.80
3348;DHT22;1687;49.540;8.574;2022-09-09T02:54:31;17.90;72.00
3348;DHT22;1687;49.540;8.574;2022-09-09T02:57:06;17.80;72.00
3348;DHT22;1687;49.540;8.574;2022-09-09T02:59:36;17.90;72.40
3348;DHT22;1687;49.540;8.574;2022-09-09T03:02:02;17.90;72.50
3348;DHT22;1687;49.540;8.574;2022-09-09T03:04:29;17.80;72.40
3348;DHT22;1687;49.540;8.574;2022-09-09T03:06:57;17.80;72.60
3348;DHT22;1687;49.540;8.574;2022-09-09T03:09:24;17.80;72.90
3348;DHT22;1687;49.540;8.574;2022-09-09T03:11:51;17.80;72.90
3348;DHT22;1687;49.540;8.574;2022-09-09T03:14:17;17.80;73.20
3348;DHT22;1687;49.540;8.574;2022-09-09T03:16:46;17.80;73.00
3348;DHT22;1687;49.540;8.574;2022-09-09T03:19:13;17.80;73.00
3348;DHT22;1687;49.540;8.574;2022-09-09T03:21:39;17.80;73.10
3348;DHT22;1687;49.540;8.574;2022-09-09T03:24:05;17.80;73.40
3348;DHT22;1687;49.540;8.574;2022-09-09T03:26:32;17.80;73.30
3348;DHT22;1687;49.540;8.574;2022-09-09T03:28:58;17.70;73.40
3348;DHT22;1687;49.540;8.574;2022-09-09T03:31:25;17.70;73.50
3348;DHT22;1687;49.540;8.574;2022-09-09T03:33:56;17.60;73.10
3348;DHT22;1687;49.540;8.574;2022-09-09T03:36:23;17.60;73.40
3348;DHT22;1687;49.540;8.574;2022-09-09T03:38:51;17.60;73.50
3348;DHT22;1687;49.540;8.574;2022-09-09T03:41:17;17.50;73.60
3348;DHT22;1687;49.540;8.574;2022-09-09T03:43:43;17.40;73.70
3348;DHT22;1687;49.540;8.574;2022-09-09T03:46:09;17.40;73.90
3348;DHT22;1687;49.540;8.574;2022-09-09T03:48:35;17.40;74.00
3348;DHT22;1687;49.540;8.574;2022-09-09T03:51:01;17.40;74.20
3348;DHT22;1687;49.540;8.574;2022-09-09T03:53:29;17.40;74.10
3348;DHT22;1687;49.540;8.574;2022-09-09T03:55:57;17.40;74.30
3348;DHT22;1687;49.540;8.574;2022-09-09T03:58:25;17.40;74.50
3348;DHT22;1687;49.540;8.574;2022-09-09T04:00:56;17.40;74.60
3348;DHT22;1687;49.540;8.574;2022-09-09T04:03:24;17.40;74.40
3348;DHT22;1687;49.540;8.574;2022-09-09T04:05:51;17.30;74.50
3348;DHT22;1687;49.540;8.574;2022-09-09T04:08:18;17.30;74.70
3348;DHT22;1687;49.540;8.574;2022-09-09T04:10:45;17.40;74.90
3348;DHT22;1687;49.540;8.574;2022-09-09T04:13:15;17.30;74.80
3348;DHT22;1687;49.540;8.574;2022-09-09T04:15:53;17.30;74.80
3348;DHT22;1687;49.540;8.574;2022-09-09T04:18:20;17.30;75.00
3348;DHT22;1687;49.540;8.574;2022-09-09T04:20:48;17.20;75.10
3348;DHT22;1687;49.540;8.574;2022-09-09T04:23:15;17.20;75.20
3348;DHT22;1687;49.540;8.574;2022-09-09T04:25:49;17.10;75.10
3348;DHT22;1687;49.540;8.574;2022-09-09T04:28:18;17.20;75.50
3348;DHT22;1687;49.540;8.574;2022-09-09T04:30:46;17.20;75.50
3348;DHT22;1687;49.540;8.574;2022-09-09T04:33:12;17.30;75.70
3348;DHT22;1687;49.540;8.574;2022-09-09T04:35:39;17.30;76.40
3348;DHT22;1687;49.540;8.574;2022-09-09T04:38:09;17.30;75.70
3348;DHT22;1687;49.540;8.574;2022-09-09T04:40:35;17.30;75.80
3348;DHT22;1687;49.540;8.574;2022-09-09T04:43:02;17.30;75.90
3348;DHT22;1687;49.540;8.574;2022-09-09T04:45:30;17.30;75.70
3348;DHT22;1687;49.540;8.574;2022-09-09T04:47:56;17.30;75.90
3348;DHT22;1687;49.540;8.574;2022-09-09T04:50:22;17.30;75.90
3348;DHT22;1687;49.540;8.574;2022-09-09T04:52:48;17.20;76.10
3348;DHT22;1687;49.540;8.574;2022-09-09T04:55:14;17.30;76.30
3348;DHT22;1687;49.540;8.574;2022-09-09T04:57:40;17.30;76.40
3348;DHT22;1687;49.540;8.574;2022-09-09T05:00:06;17.40;76.50
3348;DHT22;1687;49.540;8.574;2022-09-09T05:02:32;17.40;76.30
3348;DHT22;1687;49.540;8.574;2022-09-09T05:04:58;17.40;76.50
3348;DHT22;1687;49.540;8.574;2022-09-09T05:07:26;17.40;76.60
3348;DHT22;1687;49.540;8.574;2022-09-09T05:09:52;17.50;76.80
3348;DHT22;1687;49.540;8.574;2022-09-09T05:12:18;17.50;76.80
3348;DHT22;1687;49.540;8.574;2022-09-09T05:14:44;17.50;76.70
3348;DHT22;1687;49.540;8.574;2022-09-09T05:17:10;17.50;76.70
3348;DHT22;1687;49.540;8.574;2022-09-09T05:19:36;17.60;76.90
3348;DHT22;1687;49.540;8.574;2022-09-09T05:22:02;17.50;76.50
3348;DHT22;1687;49.540;8.574;2022-09-09T05:24:28;17.50;76.60
3348;DHT22;1687;49.540;8.574;2022-09-09T05:26:54;17.50;76.80
3348;DHT22;1687;49.540;8.574;2022-09-09T05:29:23;17.50;76.80
3348;DHT22;1687;49.540;8.574;2022-09-09T05:31:48;17.60;76.80
3348;DHT22;1687;49.540;8.574;2022-09-09T05:34:14;17.60;76.80
3348;DHT22;1687;49.540;8.574;2022-09-09T05:36:40;17.60;76.80
3348;DHT22;1687;49.540;8.574;2022-09-09T05:39:05;17.60;77.00
3348;DHT22;1687;49.540;8.574;2022-09-09T05:41:31;17.70;77.20
3348;DHT22;1687;49.540;8.574;2022-09-09T05:43:58;17.80;77.10
3348;DHT22;1687;49.540;8.574;2022-09-09T05:46:26;17.90;77.00
3348;DHT22;1687;49.540;8.574;2022-09-09T05:48:53;17.90;76.90
3348;DHT22;1687;49.540;8.574;2022-09-09T05:51:21;17.80;76.80
3348;DHT22;1687;49.540;8.574;2022-09-09T05:53:50;17.80;76.80
3348;DHT22;1687;49.540;8.574;2022-09-09T05:56:22;17.90;77.10
3348;DHT22;1687;49.540;8.574;2022-09-09T05:58:50;17.90;76.90
3348;DHT22;1687;49.540;8.574;2022-09-09T06:01:19;18.00;77.10
3348;DHT22;1687;49.540;8.574;2022-09-09T06:03:50;18.00;77.10
3348;DHT22;1687;49.540;8.574;2022-09-09T06:06:19;18.00;76.90
3348;DHT22;1687;49.540;8.574;2022-09-09T06:08:52;18.10;77.20
3348;DHT22;1687;49.540;8.574;2022-09-09T06:11:24;18.10;77.30
3348;DHT22;1687;49.540;8.574;2022-09-09T06:13:51;18.10;77.00
3348;DHT22;1687;49.540;8.574;2022-09-09T06:16:21;18.10;77.20
3348;DHT22;1687;49.540;8.574;2022-09-09T06:18:49;18.20;77.40
3348;DHT22;1687;49.540;8.574;2022-09-09T06:23:44;18.30;77.10
3348;DHT22;1687;49.540;8.574;2022-09-09T06:26:21;18.30;77.00
3348;DHT22;1687;49.540;8.574;2022-09-09T06:28:50;18.30;77.20
3348;DHT22;1687;49.540;8.574;2022-09-09T06:31:22;18.20;76.70
3348;DHT22;1687;49.540;8.574;2022-09-09T06:33:53;18.20;77.00
3348;DHT22;1687;49.540;8.574;2022-09-09T06:36:40;18.30;76.90
3348;DHT22;1687;49.540;8.574;2022-09-09T06:39:07;18.40;77.40
3348;DHT22;1687;49.540;8.574;2022-09-09T06:41:34;18.60;77.40
3348;DHT22;1687;49.540;8.574;2022-09-09T06:43:59;18.70;77.00
3348;DHT22;1687;49.540;8.574;2022-09-09T06:46:28;18.80;77.40
3348;DHT22;1687;49.540;8.574;2022-09-09T06:48:56;19.00;77.40
3348;DHT22;1687;49.540;8.574;2022-09-09T06:51:29;19.00;76.90
3348;DHT22;1687;49.540;8.574;2022-09-09T06:53:58;19.10;77.40
3348;DHT22;1687;49.540;8.574;2022-09-09T06:56:27;19.20;77.10
3348;DHT22;1687;49.540;8.574;2022-09-09T06:58:58;19.30;77.00
3348;DHT22;1687;49.540;8.574;2022-09-09T07:01:28;19.40;76.80
3348;DHT22;1687;49.540;8.574;2022-09-09T07:03:57;19.50;76.70
3348;DHT22;1687;49.540;8.574;2022-09-09T07:06:32;19.50;76.50
3348;DHT22;1687;49.540;8.574;2022-09-09T07:09:05;19.60;76.60
3348;DHT22;1687;49.540;8.574;2022-09-09T07:11:38;19.60;76.40
3348;DHT22;1687;49.540;8.574;2022-09-09T07:14:06;19.70;76.20
3348;DHT22;1687;49.540;8.574;2022-09-09T07:16:33;19.70;76.10
3348;DHT22;1687;49.540;8.574;2022-09-09T07:19:02;19.70;75.90
3348;DHT22;1687;49.540;8.574;2022-09-09T07:21:29;19.80;76.10
3348;DHT22;1687;49.540;8.574;2022-09-09T07:23:56;19.80;75.50
3348;DHT22;1687;49.540;8.574;2022-09-09T07:26:24;19.80;75.40
3348;DHT22;1687;49.540;8.574;2022-09-09T07:28:51;19.70;75.40
3348;DHT22;1687;49.540;8.574;2022-09-09T07:31:23;19.80;75.40
3348;DHT22;1687;49.540;8.574;2022-09-09T07:33:51;20.00;75.80
3348;DHT22;1687;49.540;8.574;2022-09-09T07:36:25;20.10;75.20
3348;DHT22;1687;49.540;8.574;2022-09-09T07:39:00;20.10;75.10
3348;DHT22;1687;49.540;8.574;2022-09-09T07:41:39;20.10;75.10
3348;DHT22;1687;49.540;8.574;2022-09-09T07:44:09;20.10;74.80
3348;DHT22;1687;49.540;8.574;2022-09-09T07:46:37;20.10;74.90
3348;DHT22;1687;49.540;8.574;2022-09-09T07:49:05;20.10;74.80
3348;DHT22;1687;49.540;8.574;2022-09-09T07:51:36;20.10;74.40
3348;DHT22;1687;49.540;8.574;2022-09-09T07:54:07;20.10;74.20
3348;DHT22;1687;49.540;8.574;2022-09-09T07:56:35;20.10;74.50
3348;DHT22;1687;49.540;8.574;2022-09-09T07:59:03;20.20;74.40
3348;DHT22;1687;49.540;8.574;2022-09-09T08:01:34;20.30;74.60
3348;DHT22;1687;49.540;8.574;2022-09-09T08:04:07;20.40;74.20
3348;DHT22;1687;49.540;8.574;2022-09-09T08:06:37;20.50;74.20
3348;DHT22;1687;49.540;8.574;2022-09-09T08:09:06;20.70;74.20
3348;DHT22;1687;49.540;8.574;2022-09-09T08:11:32;20.70;73.60
3348;DHT22;1687;49.540;8.574;2022-09-09T08:13:58;20.70;73.30
3348;DHT22;1687;49.540;8.574;2022-09-09T08:16:27;20.60;73.10
3348;DHT22;1687;49.540;8.574;2022-09-09T08:18:57;20.60;73.20
3348;DHT22;1687;49.540;8.574;2022-09-09T08:21:28;20.60;73.10
3348;DHT22;1687;49.540;8.574;2022-09-09T08:23:56;20.60;72.90
3348;DHT22;1687;49.540;8.574;2022-09-09T08:26:25;20.60;73.70
3348;DHT22;1687;49.540;8.574;2022-09-09T08:28:56;20.60;72.90
3348;DHT22;1687;49.540;8.574;2022-09-09T08:31:25;20.50;72.60
3348;DHT22;1687;49.540;8.574;2022-09-09T08:33:57;20.50;72.50
3348;DHT22;1687;49.540;8.574;2022-09-09T08:36:26;20.40;72.60
3348;DHT22;1687;49.540;8.574;2022-09-09T08:38:54;20.40;72.80
3348;DHT22;1687;49.540;8.574;2022-09-09T08:46:41;20.60;73.30
3348;DHT22;1687;49.540;8.574;2022-09-09T08:49:37;20.60;73.00
3348;DHT22;1687;49.540;8.574;2022-09-09T08:52:19;20.70;73.40
3348;DHT22;1687;49.540;8.574;2022-09-09T08:55:03;20.60;72.90
3348;DHT22;1687;49.540;8.574;2022-09-09T08:57:38;20.60;72.90
3348;DHT22;1687;49.540;8.574;2022-09-09T09:00:04;20.50;73.10
3348;DHT22;1687;49.540;8.574;2022-09-09T09:02:48;20.50;73.50
3348;DHT22;1687;49.540;8.574;2022-09-09T09:05:36;20.50;73.10
3348;DHT22;1687;49.540;8.574;2022-09-09T09:08:15;20.50;73.10
3348;DHT22;1687;49.540;8.574;2022-09-09T09:10:46;20.40;73.00
3348;DHT22;1687;49.540;8.574;2022-09-09T09:13:17;20.50;73.40
3348;DHT22;1687;49.540;8.574;2022-09-09T09:15:53;20.50;73.30
3348;DHT22;1687;49.540;8.574;2022-09-09T09:18:22;20.70;73.40
3348;DHT22;1687;49.540;8.574;2022-09-09T09:20:54;20.80;73.30
3348;DHT22;1687;49.540;8.574;2022-09-09T09:23:36;21.10;73.70
3348;DHT22;1687;49.540;8.574;2022-09-09T09:26:10;21.50;73.40
3348;DHT22;1687;49.540;8.574;2022-09-09T09:28:42;21.90;73.40
3348;DHT22;1687;49.540;8.574;2022-09-09T09:31:12;22.00;72.90
3348;DHT22;1687;49.540;8.574;2022-09-09T09:33:51;22.20;72.80
3348;DHT22;1687;49.540;8.574;2022-09-09T09:36:24;22.50;73.00
3348;DHT22;1687;49.540;8.574;2022-09-09T09:38:59;22.60;71.90
3348;DHT22;1687;49.540;8.574;2022-09-09T09:41:33;22.50;71.90
3348;DHT22;1687;49.540;8.574;2022-09-09T09:44:02;22.30;70.80
3348;DHT22;1687;49.540;8.574;2022-09-09T09:46:28;22.10;71.10
3348;DHT22;1687;49.540;8.574;2022-09-09T09:49:02;22.00;70.60
3348;DHT22;1687;49.540;8.574;2022-09-09T09:51:32;21.90;70.80
3348;DHT22;1687;49.540;8.574;2022-09-09T09:56:39;21.70;70.10
3348;DHT22;1687;49.540;8.574;2022-09-09T09:59:21;21.50;70.00
3348;DHT22;1687;49.540;8.574;2022-09-09T10:01:49;21.40;70.00
3348;DHT22;1687;49.540;8.574;2022-09-09T10:04:18;21.20;70.00
3348;DHT22;1687;49.540;8.574;2022-09-09T10:06:46;21.10;69.40
3348;DHT22;1687;49.540;8.574;2022-09-09T10:09:29;21.00;69.70
3348;DHT22;1687;49.540;8.574;2022-09-09T10:15:32;20.80;69.20
3348;DHT22;1687;49.540;8.574;2022-09-09T10:18:43;20.50;68.70
3348;DHT22;1687;49.540;8.574;2022-09-09T10:32:55;20.60;70.90
3348;DHT22;1687;49.540;8.574;2022-09-09T10:35:30;20.80;71.10
3348;DHT22;1687;49.540;8.574;2022-09-09T10:38:16;20.80;70.70
3348;DHT22;1687;49.540;8.574;2022-09-09T10:43:42;21.10;71.40
3348;DHT22;1687;49.540;8.574;2022-09-09T10:46:52;21.30;71.40
3348;DHT22;1687;49.540;8.574;2022-09-09T10:49:44;21.40;71.20
3348;DHT22;1687;49.540;8.574;2022-09-09T10:54:53;21.50;71.60
3348;DHT22;1687;49.540;8.574;2022-09-09T10:57:38;21.70;71.70
3348;DHT22;1687;49.540;8.574;2022-09-09T11:02:56;21.90;71.40
3348;DHT22;1687;49.540;8.574;2022-09-09T11:05:42;22.10;71.80
3348;DHT22;1687;49.540;8.574;2022-09-09T11:08:11;22.20;71.20
3348;DHT22;1687;49.540;8.574;2022-09-09T11:11:02;22.30;71.10
3348;DHT22;1687;49.540;8.574;2022-09-09T11:16:33;22.30;70.60
3348;DHT22;1687;49.540;8.574;2022-09-09T11:19:14;22.50;71.50
3348;DHT22;1687;49.540;8.574;2022-09-09T11:21:48;22.60;70.50
3348;DHT22;1687;49.540;8.574;2022-09-09T11:24:31;22.70;70.20
3348;DHT22;1687;49.540;8.574;2022-09-09T11:30:22;23.10;69.60
3348;DHT22;1687;49.540;8.574;2022-09-09T11:33:03;23.20;68.50
3348;DHT22;1687;49.540;8.574;2022-09-09T11:36:16;23.20;68.20
3348;DHT22;1687;49.540;8.574;2022-09-09T11:38:48;23.20;67.60
3348;DHT22;1687;49.540;8.574;2022-09-09T11:41:20;23.20;67.30
3348;DHT22;1687;49.540;8.574;2022-09-09T11:43:51;23.20;67.30
3348;DHT22;1687;49.540;8.574;2022-09-09T11:46:20;23.30;66.90
3348;DHT22;1687;49.540;8.574;2022-09-09T11:49:02;23.40;66.70
3348;DHT22;1687;49.540;8.574;2022-09-09T11:51:31;23.40;66.40
3348;DHT22;1687;49.540;8.574;2022-09-09T11:54:02;23.30;65.90
3348;DHT22;1687;49.540;8.574;2022-09-09T11:56:34;23.20;65.50
3348;DHT22;1687;49.540;8.574;2022-09-09T11:59:29;23.20;65.80
3348;DHT22;1687;49.540;8.574;2022-09-09T12:02:24;23.10;65.20
3348;DHT22;1687;49.540;8.574;2022-09-09T12:07:35;23.10;65.00
3348;DHT22;1687;49.540;8.574;2022-09-09T12:10:25;23.10;64.70
3348;DHT22;1687;49.540;8.574;2022-09-09T12:12:52;23.10;64.40
3348;DHT22;1687;49.540;8.574;2022-09-09T12:15:28;23.00;64.40
3348;DHT22;1687;49.540;8.574;2022-09-09T12:17:57;23.00;64.10
3348;DHT22;1687;49.540;8.574;2022-09-09T12:20:33;22.90;63.60
3348;DHT22;1687;49.540;8.574;2022-09-09T12:23:18;22.70;63.30
3348;DHT22;1687;49.540;8.574;2022-09-09T12:32:07;22.40;62.50
3348;DHT22;1687;49.540;8.574;2022-09-09T12:40:00;17.90;60.90
3348;DHT22;1687;49.540;8.574;2022-09-09T12:42:29;17.60;63.00
3348;DHT22;1687;49.540;8.574;2022-09-09T12:44:58;17.70;64.30
3348;DHT22;1687;49.540;8.574;2022-09-09T12:47:53;17.90;65.40
3348;DHT22;1687;49.540;8.574;2022-09-09T12:50:28;18.00;66.20
3348;DHT22;1687;49.540;8.574;2022-09-09T12:53:01;18.10;67.50
3348;DHT22;1687;49.540;8.574;2022-09-09T12:55:32;18.40;68.10
3348;DHT22;1687;49.540;8.574;2022-09-09T12:57:59;18.50;68.90
3348;DHT22;1687;49.540;8.574;2022-09-09T13:00:29;18.70;69.40
3348;DHT22;1687;49.540;8.574;2022-09-09T13:02:58;18.80;70.10
3348;DHT22;1687;49.540;8.574;2022-09-09T13:08:08;19.10;71.30
3348;DHT22;1687;49.540;8.574;2022-09-09T13:10:43;19.10;71.60
3348;DHT22;1687;49.540;8.574;2022-09-09T13:13:43;19.10;71.80
3348;DHT22;1687;49.540;8.574;2022-09-09T13:16:34;19.00;72.40
3348;DHT22;1687;49.540;8.574;2022-09-09T13:19:06;18.90;72.90
3348;DHT22;1687;49.540;8.574;2022-09-09T13:21:34;18.90;73.20
3348;DHT22;1687;49.540;8.574;2022-09-09T13:24:01;18.70;72.90
3348;DHT22;1687;49.540;8.574;2022-09-09T13:26:30;18.00;70.30
3348;DHT22;1687;49.540;8.574;2022-09-09T13:29:17;17.30;71.70
3348;DHT22;1687;49.540;8.574;2022-09-09T13:31:44;16.90;73.00
3348;DHT22;1687;49.540;8.574;2022-09-09T13:34:34;16.90;75.10
3348;DHT22;1687;49.540;8.574;2022-09-09T13:37:03;17.30;76.30
3348;DHT22;1687;49.540;8.574;2022-09-09T13:39:33;17.40;76.20
3348;DHT22;1687;49.540;8.574;2022-09-09T13:42:00;17.50;76.80
3348;DHT22;1687;49.540;8.574;2022-09-09T13:44:36;17.30;76.70
3348;DHT22;1687;49.540;8.574;2022-09-09T13:49:39;17.00;77.40
3348;DHT22;1687;49.540;8.574;2022-09-09T13:54:37;17.30;79.40
3348;DHT22;1687;49.540;8.574;2022-09-09T13:57:03;17.60;80.80
3348;DHT22;1687;49.540;8.574;2022-09-09T13:59:30;17.90;81.60
3348;DHT22;1687;49.540;8.574;2022-09-09T14:01:57;18.20;81.30
3348;DHT22;1687;49.540;8.574;2022-09-09T14:04:23;18.50;82.70
3348;DHT22;1687;49.540;8.574;2022-09-09T14:06:49;18.80;83.00
3348;DHT22;1687;49.540;8.574;2022-09-09T14:09:17;18.80;82.70
3348;DHT22;1687;49.540;8.574;2022-09-09T14:11:44;18.70;82.70
3348;DHT22;1687;49.540;8.574;2022-09-09T14:14:12;18.80;84.10
3348;DHT22;1687;49.540;8.574;2022-09-09T14:16:38;19.10;85.20
3348;DHT22;1687;49.540;8.574;2022-09-09T14:19:04;19.40;85.80
3348;DHT22;1687;49.540;8.574;2022-09-09T14:21:30;20.80;88.10
3348;DHT22;1687;49.540;8.574;2022-09-09T14:23:55;22.00;86.60
3348;DHT22;1687;49.540;8.574;2022-09-09T14:26:23;23.20;87.40
3348;DHT22;1687;49.540;8.574;2022-09-09T14:28:50;24.30;87.70
3348;DHT22;1687;49.540;8.574;2022-09-09T14:31:17;24.40;85.40
3348;DHT22;1687;49.540;8.574;2022-09-09T14:33:44;24.50;86.20
3348;DHT22;1687;49.540;8.574;2022-09-09T14:36:10;25.10;87.20
3348;DHT22;1687;49.540;8.574;2022-09-09T14:38:37;25.40;88.60
3348;DHT22;1687;49.540;8.574;2022-09-09T14:41:06;26.20;90.10
3348;DHT22;1687;49.540;8.574;2022-09-09T14:43:32;26.20;88.70
3348;DHT22;1687;49.540;8.574;2022-09-09T14:46:11;26.20;88.60
3348;DHT22;1687;49.540;8.574;2022-09-09T14:48:38;26.30;88.50
3348;DHT22;1687;49.540;8.574;2022-09-09T14:51:07;25.50;88.80
3348;DHT22;1687;49.540;8.574;2022-09-09T14:53:41;24.40;89.50
3348;DHT22;1687;49.540;8.574;2022-09-09T14:56:10;23.60;90.70
3348;DHT22;1687;49.540;8.574;2022-09-09T14:58:37;23.20;91.30
3348;DHT22;1687;49.540;8.574;2022-09-09T15:01:12;22.70;91.60
3348;DHT22;1687;49.540;8.574;2022-09-09T15:03:40;22.30;92.40
3348;DHT22;1687;49.540;8.574;2022-09-09T15:06:13;22.00;92.50
3348;DHT22;1687;49.540;8.574;2022-09-09T15:08:41;21.90;93.50
3348;DHT22;1687;49.540;8.574;2022-09-09T15:11:10;21.70;93.40
3348;DHT22;1687;49.540;8.574;2022-09-09T15:13:37;21.60;94.00
3348;DHT22;1687;49.540;8.574;2022-09-09T15:16:05;21.40;93.70
3348;DHT22;1687;49.540;8.574;2022-09-09T15:18:33;21.20;94.10
3348;DHT22;1687;49.540;8.574;2022-09-09T15:20:59;21.00;94.40
3348;DHT22;1687;49.540;8.574;2022-09-09T15:23:26;20.80;94.20
3348;DHT22;1687;49.540;8.574;2022-09-09T15:25:53;20.50;94.00
3348;DHT22;1687;49.540;8.574;2022-09-09T15:28:21;20.30;94.50
3348;DHT22;1687;49.540;8.574;2022-09-09T15:30:50;20.20;94.20
3348;DHT22;1687;49.540;8.574;2022-09-09T15:33:18;19.90;94.00
3348;DHT22;1687;49.540;8.574;2022-09-09T15:35:47;19.70;94.00
3348;DHT22;1687;49.540;8.574;2022-09-09T15:38:14;19.40;93.70
3348;DHT22;1687;49.540;8.574;2022-09-09T15:40:40;19.10;93.50
3348;DHT22;1687;49.540;8.574;2022-09-09T15:43:07;18.90;93.60
3348;DHT22;1687;49.540;8.574;2022-09-09T15:45:33;18.70;93.40
3348;DHT22;1687;49.540;8.574;2022-09-09T15:48:03;18.60;93.30
3348;DHT22;1687;49.540;8.574;2022-09-09T15:50:29;18.50;93.30
3348;DHT22;1687;49.540;8.574;2022-09-09T15:52:59;18.40;93.30
3348;DHT22;1687;49.540;8.574;2022-09-09T15:55:25;18.40;93.40
3348;DHT22;1687;49.540;8.574;2022-09-09T15:57:51;18.50;93.40
3348;DHT22;1687;49.540;8.574;2022-09-09T16:00:18;18.60;93.50
3348;DHT22;1687;49.540;8.574;2022-09-09T16:02:45;18.80;93.60
3348;DHT22;1687;49.540;8.574;2022-09-09T16:05:12;19.10;93.50
3348;DHT22;1687;49.540;8.574;2022-09-09T16:07:37;19.60;93.70
3348;DHT22;1687;49.540;8.574;2022-09-09T16:10:03;20.30;93.40
3348;DHT22;1687;49.540;8.574;2022-09-09T16:12:30;20.50;93.00
3348;DHT22;1687;49.540;8.574;2022-09-09T16:14:56;20.50;92.80
3348;DHT22;1687;49.540;8.574;2022-09-09T16:17:21;20.50;92.90
3348;DHT22;1687;49.540;8.574;2022-09-09T16:19:47;20.50;92.70
3348;DHT22;1687;49.540;8.574;2022-09-09T16:22:13;20.40;92.30
3348;DHT22;1687;49.540;8.574;2022-09-09T16:24:40;20.20;92.20
3348;DHT22;1687;49.540;8.574;2022-09-09T16:27:06;20.00;92.20
3348;DHT22;1687;49.540;8.574;2022-09-09T16:29:32;19.90;92.20
3348;DHT22;1687;49.540;8.574;2022-09-09T16:31:58;19.80;92.10
3348;DHT22;1687;49.540;8.574;2022-09-09T16:34:25;19.70;92.10
3348;DHT22;1687;49.540;8.574;2022-09-09T16:36:51;19.70;92.10
3348;DHT22;1687;49.540;8.574;2022-09-09T16:39:18;19.60;92.00
3348;DHT22;1687;49.540;8.574;2022-09-09T16:41:46;19.50;91.90
3348;DHT22;1687;49.540;8.574;2022-09-09T16:44:13;19.50;91.90
3348;DHT22;1687;49.540;8.574;2022-09-09T16:46:45;19.50;91.80
3348;DHT22;1687;49.540;8.574;2022-09-09T16:49:14;19.40;91.70
3348;DHT22;1687;49.540;8.574;2022-09-09T16:51:50;19.40;91.90
3348;DHT22;1687;49.540;8.574;2022-09-09T16:54:18;19.40;91.60
3348;DHT22;1687;49.540;8.574;2022-09-09T16:56:46;19.30;91.60
3348;DHT22;1687;49.540;8.574;2022-09-09T16:59:16;19.30;91.70
3348;DHT22;1687;49.540;8.574;2022-09-09T17:01:44;19.30;91.70
3348;DHT22;1687;49.540;8.574;2022-09-09T17:04:16;19.40;91.50
3348;DHT22;1687;49.540;8.574;2022-09-09T17:06:50;19.40;91.50
3348;DHT22;1687;49.540;8.574;2022-09-09T17:09:17;19.40;91.50
3348;DHT22;1687;49.540;8.574;2022-09-09T17:11:44;19.40;91.50
3348;DHT22;1687;49.540;8.574;2022-09-09T17:14:14;19.40;91.30
3348;DHT22;1687;49.540;8.574;2022-09-09T17:16:41;19.40;91.30
3348;DHT22;1687;49.540;8.574;2022-09-09T17:19:07;19.40;91.20
3348;DHT22;1687;49.540;8.574;2022-09-09T17:21:34;19.30;91.00
3348;DHT22;1687;49.540;8.574;2022-09-09T17:24:00;19.20;90.90
3348;DHT22;1687;49.540;8.574;2022-09-09T17:26:29;19.20;91.20
3348;DHT22;1687;49.540;8.574;2022-09-09T17:28:56;19.10;91.00
3348;DHT22;1687;49.540;8.574;2022-09-09T17:31:24;19.10;91.00
3348;DHT22;1687;49.540;8.574;2022-09-09T17:33:51;19.10;91.00
3348;DHT22;1687;49.540;8.574;2022-09-09T17:36:26;19.00;90.70
3348;DHT22;1687;49.540;8.574;2022-09-09T17:38:54;18.90;90.70
3348;DHT22;1687;49.540;8.574;2022-09-09T17:41:27;18.80;90.60
3348;DHT22;1687;49.540;8.574;2022-09-09T17:43:54;18.70;90.70
3348;DHT22;1687;49.540;8.574;2022-09-09T17:46:22;18.60;90.60
3348;DHT22;1687;49.540;8.574;2022-09-09T17:48:51;18.60;90.70
3348;DHT22;1687;49.540;8.574;2022-09-09T17:51:21;18.60;91.00
3348;DHT22;1687;49.540;8.574;2022-09-09T17:53:54;18.50;90.70
3348;DHT22;1687;49.540;8.574;2022-09-09T17:56:22;18.50;90.60
3348;DHT22;1687;49.540;8.574;2022-09-09T17:58:49;18.50;90.60
3348;DHT22;1687;49.540;8.574;2022-09-09T18:01:21;18.40;90.60
3348;DHT22;1687;49.540;8.574;2022-09-09T18:03:49;18.40;90.70
3348;DHT22;1687;49.540;8.574;2022-09-09T18:06:18;18.40;90.60
3348;DHT22;1687;49.540;8.574;2022-09-09T18:08:54;18.30;90.50